createdAt,value
2018-06-11T00:01:51.790Z,18.90
2018-06-11T00:04:19.883Z,18.90
2018-06-11T00:06:47.914Z,18.90
2018-06-11T00:09:16.002Z,18.90
2018-06-11T00:11:44.046Z,18.80
2018-06-11T00:14:12.142Z,18.80
2018-06-11T00:16:40.641Z,18.80
2018-06-11T00:19:08.672Z,18.90
2018-06-11T00:21:36.800Z,18.90
2018-06-11T00:24:04.775Z,18.80
2018-06-11T00:26:32.806Z,18.80
2018-06-11T00:29:00.844Z,18.80
2018-06-11T00:31:28.949Z,18.70
2018-06-11T00:33:57.034Z,18.60
2018-06-11T00:36:25.066Z,18.60
2018-06-11T00:38:53.100Z,18.50
2018-06-11T00:41:21.134Z,18.50
2018-06-11T00:43:49.326Z,18.40
2018-06-11T00:46:17.353Z,18.40
2018-06-11T00:48:45.480Z,18.40
2018-06-11T00:51:13.514Z,18.40
2018-06-11T00:53:41.567Z,18.40
2018-06-11T00:56:10.000Z,18.30
2018-06-11T00:58:38.170Z,18.30
2018-06-11T01:01:06.231Z,18.30
2018-06-11T01:03:34.251Z,18.30
2018-06-11T01:06:02.275Z,18.30
2018-06-11T01:08:30.316Z,18.20
2018-06-11T01:10:58.345Z,18.20
2018-06-11T01:13:26.381Z,18.30
2018-06-11T01:15:54.401Z,18.30
2018-06-11T01:18:22.491Z,18.20
2018-06-11T01:20:50.504Z,18.30
2018-06-11T01:23:18.529Z,18.20
2018-06-11T01:25:46.652Z,18.20
2018-06-11T01:28:14.721Z,18.10
2018-06-11T01:30:42.742Z,18.20
2018-06-11T01:33:10.798Z,18.10
2018-06-11T01:35:38.835Z,18.10
2018-06-11T01:38:06.939Z,18.10
2018-06-11T01:40:34.985Z,18.00
2018-06-11T01:43:03.287Z,18.00
2018-06-11T01:45:31.357Z,18.00
2018-06-11T01:47:59.546Z,17.90
2018-06-11T01:50:27.586Z,17.90
2018-06-11T01:52:55.609Z,17.90
2018-06-11T01:55:23.641Z,17.90
2018-06-11T01:57:51.826Z,17.90
2018-06-11T02:00:19.833Z,17.90
2018-06-11T02:02:47.860Z,17.90
2018-06-11T02:05:16.015Z,17.90
2018-06-11T02:07:44.081Z,17.90
2018-06-11T02:10:12.322Z,17.90
2018-06-11T02:12:40.337Z,17.80
2018-06-11T02:15:08.406Z,17.80
2018-06-11T02:17:36.480Z,17.70
2018-06-11T02:20:04.533Z,17.70
2018-06-11T02:22:32.542Z,17.70
2018-06-11T02:25:00.628Z,17.70
2018-06-11T02:27:28.661Z,17.60
2018-06-11T02:29:56.706Z,17.60
2018-06-11T02:32:24.824Z,17.60
2018-06-11T02:34:52.868Z,17.60
2018-06-11T02:37:20.958Z,17.60
2018-06-11T02:39:49.022Z,17.60
2018-06-11T02:42:17.102Z,17.50
2018-06-11T02:44:45.193Z,17.50
2018-06-11T02:47:13.240Z,17.60
2018-06-11T02:49:41.272Z,17.60
2018-06-11T02:52:09.307Z,17.60
2018-06-11T02:54:37.474Z,17.60
2018-06-11T02:57:05.496Z,17.50
2018-06-11T02:59:33.613Z,17.50
2018-06-11T03:02:01.807Z,17.40
2018-06-11T03:04:29.858Z,17.40
2018-06-11T03:06:57.889Z,17.30
2018-06-11T03:09:25.945Z,17.40
2018-06-11T03:11:54.036Z,17.40
2018-06-11T03:14:22.085Z,17.40
2018-06-11T03:16:50.109Z,17.40
2018-06-11T03:19:18.221Z,17.50
2018-06-11T03:21:46.288Z,17.50
2018-06-11T03:24:14.321Z,17.60
2018-06-11T03:26:42.364Z,17.60
2018-06-11T03:29:10.469Z,17.70
2018-06-11T03:31:38.545Z,17.70
2018-06-11T03:34:06.574Z,17.70
2018-06-11T03:36:34.640Z,17.80
2018-06-11T03:39:02.658Z,17.80
2018-06-11T03:41:30.698Z,17.80
2018-06-11T03:43:58.806Z,17.80
2018-06-11T03:46:26.886Z,17.70
2018-06-11T03:48:54.903Z,17.80
2018-06-11T03:51:23.022Z,17.90
2018-06-11T03:53:51.050Z,17.90
2018-06-11T03:56:19.086Z,17.90
2018-06-11T03:58:47.146Z,17.90
2018-06-11T04:01:15.218Z,17.90
2018-06-11T04:03:43.242Z,17.90
2018-06-11T04:06:11.348Z,18.00
2018-06-11T04:08:39.448Z,18.00
2018-06-11T04:11:07.607Z,18.00
2018-06-11T04:13:35.606Z,17.90
2018-06-11T04:16:03.671Z,17.90
2018-06-11T04:18:31.717Z,17.90
2018-06-11T04:20:59.770Z,17.90
2018-06-11T04:23:27.857Z,17.90
2018-06-11T04:25:55.936Z,17.90
2018-06-11T04:28:23.960Z,18.00
2018-06-11T04:30:52.182Z,18.10
2018-06-11T04:33:20.214Z,18.10
2018-06-11T04:35:48.258Z,18.20
2018-06-11T04:38:16.301Z,18.10
2018-06-11T04:40:44.366Z,18.10
2018-06-11T04:43:12.405Z,18.00
2018-06-11T04:45:40.509Z,18.00
2018-06-11T04:48:08.592Z,18.10
2018-06-11T04:50:36.653Z,18.10
2018-06-11T04:53:04.763Z,18.10
2018-06-11T04:55:32.828Z,18.10
2018-06-11T04:58:00.824Z,18.10
2018-06-11T05:00:28.847Z,18.20
2018-06-11T05:02:56.918Z,18.30
2018-06-11T05:05:24.972Z,18.30
2018-06-11T05:07:53.001Z,18.40
2018-06-11T05:10:21.050Z,18.40
2018-06-11T05:12:49.101Z,18.50
2018-06-11T05:15:17.203Z,18.60
2018-06-11T05:17:45.244Z,18.60
2018-06-11T05:20:13.375Z,18.60
2018-06-11T05:22:41.418Z,18.70
2018-06-11T05:25:09.462Z,18.80
2018-06-11T05:27:37.534Z,18.90
2018-06-11T05:30:05.544Z,19.10
2018-06-11T05:32:33.729Z,19.20
2018-06-11T05:35:01.725Z,19.20
2018-06-11T05:37:29.827Z,19.30
2018-06-11T05:39:57.907Z,19.40
2018-06-11T05:42:25.970Z,19.20
2018-06-11T05:44:53.973Z,19.20
2018-06-11T05:47:22.111Z,19.20
2018-06-11T05:49:50.125Z,19.10
2018-06-11T05:52:18.172Z,19.10
2018-06-11T05:54:46.228Z,19.00
2018-06-11T05:57:14.316Z,19.10
2018-06-11T05:59:42.343Z,19.10
2018-06-11T06:02:10.442Z,19.10
2018-06-11T06:04:38.493Z,19.10
2018-06-11T06:07:06.538Z,19.10
2018-06-11T06:09:34.563Z,19.20
2018-06-11T06:12:02.573Z,19.40
2018-06-11T06:14:30.701Z,19.50
2018-06-11T06:16:58.730Z,19.50
2018-06-11T06:19:26.840Z,19.50
2018-06-11T06:21:54.932Z,19.40
2018-06-11T06:24:22.985Z,19.70
2018-06-11T06:26:51.014Z,19.80
2018-06-11T06:29:19.134Z,20.00
2018-06-11T06:31:47.141Z,20.00
2018-06-11T06:34:15.400Z,19.90
2018-06-11T06:36:43.356Z,19.80
2018-06-11T06:39:11.389Z,20.00
2018-06-11T06:41:39.384Z,20.00
2018-06-11T06:44:07.473Z,20.10
2018-06-11T06:46:35.483Z,20.20
2018-06-11T06:49:03.543Z,20.20
2018-06-11T06:51:31.580Z,20.20
2018-06-11T06:53:59.610Z,20.20
2018-06-11T06:56:27.634Z,20.20
2018-06-11T06:58:55.647Z,20.10
2018-06-11T07:01:23.772Z,20.10
2018-06-11T07:03:51.846Z,20.20
2018-06-11T07:06:19.908Z,20.30
2018-06-11T07:08:47.942Z,20.40
2018-06-11T07:11:15.963Z,20.40
2018-06-11T07:13:44.036Z,20.40
2018-06-11T07:16:12.113Z,20.20
2018-06-11T07:18:40.141Z,20.30
2018-06-11T07:21:08.168Z,20.20
2018-06-11T07:23:36.217Z,20.30
2018-06-11T07:26:04.245Z,20.40
2018-06-11T07:28:32.286Z,20.60
2018-06-11T07:31:00.338Z,20.80
2018-06-11T07:33:28.519Z,21.00
2018-06-11T07:35:56.581Z,21.00
2018-06-11T07:38:24.588Z,21.30
2018-06-11T07:40:52.659Z,21.20
2018-06-11T07:43:20.654Z,21.20
2018-06-11T07:48:16.430Z,21.40
2018-06-11T07:50:44.535Z,21.30
2018-06-11T07:53:12.519Z,21.30
2018-06-11T07:55:40.558Z,21.20
2018-06-11T07:58:08.574Z,21.10
2018-06-11T08:00:36.602Z,21.20
2018-06-11T08:03:04.673Z,21.20
2018-06-11T08:05:32.746Z,21.40
2018-06-11T08:08:00.819Z,21.40
2018-06-11T08:10:28.885Z,21.30
2018-06-11T08:12:56.896Z,21.10
2018-06-11T08:15:24.985Z,21.10
2018-06-11T08:17:53.000Z,21.00
2018-06-11T08:20:21.053Z,21.20
2018-06-11T08:22:49.075Z,21.30
2018-06-11T08:25:17.212Z,21.30
2018-06-11T08:27:45.320Z,21.10
2018-06-11T08:30:13.360Z,21.20
2018-06-11T08:32:41.425Z,21.10
2018-06-11T08:35:09.453Z,21.20
2018-06-11T08:37:37.484Z,20.90
2018-06-11T08:40:05.550Z,21.00
2018-06-11T08:42:33.564Z,20.90
2018-06-11T08:45:01.595Z,20.80
2018-06-11T08:47:29.621Z,20.80
2018-06-11T08:49:57.725Z,20.90
2018-06-11T08:52:25.834Z,21.20
2018-06-11T08:54:53.907Z,21.60
2018-06-11T08:57:21.893Z,21.70
2018-06-11T08:59:50.018Z,21.80
2018-06-11T09:02:18.061Z,21.80
2018-06-11T09:04:46.129Z,21.80
2018-06-11T09:07:14.197Z,21.90
2018-06-11T09:09:42.226Z,22.00
2018-06-11T09:12:10.253Z,22.00
2018-06-11T09:14:38.311Z,22.10
2018-06-11T09:17:06.357Z,22.10
2018-06-11T09:19:34.402Z,22.20
2018-06-11T09:22:02.419Z,21.90
2018-06-11T09:24:30.431Z,21.90
2018-06-11T09:26:59.136Z,21.80
2018-06-11T09:29:27.162Z,21.60
2018-06-11T09:31:55.502Z,21.40
2018-06-11T09:34:23.576Z,21.20
2018-06-11T09:36:51.596Z,21.10
2018-06-11T09:39:19.648Z,21.10
2018-06-11T09:41:47.721Z,21.00
2018-06-11T09:44:15.796Z,21.00
2018-06-11T09:46:43.871Z,20.80
2018-06-11T09:49:11.901Z,20.90
2018-06-11T09:51:39.912Z,21.20
2018-06-11T09:54:08.088Z,21.30
2018-06-11T09:56:36.166Z,21.40
2018-06-11T09:59:04.168Z,21.50
2018-06-11T10:01:32.309Z,21.50
2018-06-11T10:04:00.309Z,21.20
2018-06-11T10:06:28.328Z,21.30
2018-06-11T10:08:56.418Z,21.40
2018-06-11T10:11:24.494Z,21.50
2018-06-11T10:13:52.583Z,21.70
2018-06-11T10:16:20.668Z,21.70
2018-06-11T10:18:48.700Z,21.70
2018-06-11T10:21:16.766Z,21.90
2018-06-11T10:23:44.853Z,21.90
2018-06-11T10:26:12.889Z,22.20
2018-06-11T10:28:40.900Z,22.30
2018-06-11T10:31:08.987Z,22.40
2018-06-11T10:33:37.053Z,22.70
2018-06-11T10:36:05.113Z,22.90
2018-06-11T10:38:33.172Z,23.10
2018-06-11T10:41:01.188Z,23.30
2018-06-11T10:43:29.212Z,23.30
2018-06-11T10:45:57.231Z,23.10
2018-06-11T10:48:25.378Z,23.10
2018-06-11T10:50:53.401Z,23.00
2018-06-11T10:53:21.531Z,23.20
2018-06-11T10:55:49.564Z,23.10
2018-06-11T10:58:17.676Z,23.00
2018-06-11T11:00:45.749Z,23.00
2018-06-11T11:03:13.786Z,23.00
2018-06-11T11:05:41.829Z,23.10
2018-06-11T11:08:09.860Z,23.10
2018-06-11T11:10:37.892Z,23.20
2018-06-11T11:13:06.050Z,23.20
2018-06-11T11:15:34.178Z,23.30
2018-06-11T11:18:02.272Z,23.30
2018-06-11T11:20:30.417Z,23.40
2018-06-11T11:22:58.462Z,23.40
2018-06-11T11:25:26.522Z,23.30
2018-06-11T11:27:54.556Z,23.10
2018-06-11T11:30:22.637Z,23.30
2018-06-11T11:32:50.665Z,23.50
2018-06-11T11:35:18.748Z,23.50
2018-06-11T11:37:46.800Z,23.60
2018-06-11T11:40:14.901Z,23.50
2018-06-11T11:42:42.967Z,23.60
2018-06-11T11:45:10.994Z,23.90
2018-06-11T11:47:39.020Z,24.00
2018-06-11T11:50:07.041Z,24.10
2018-06-11T11:52:35.104Z,24.30
2018-06-11T11:55:03.153Z,24.20
2018-06-11T11:57:31.325Z,24.10
2018-06-11T11:59:59.334Z,24.20
2018-06-11T12:02:27.367Z,24.10
2018-06-11T12:04:55.414Z,24.30
2018-06-11T12:07:23.433Z,24.90
2018-06-11T12:09:51.484Z,26.30
2018-06-11T12:12:20.332Z,28.20
2018-06-11T12:14:48.448Z,30.20
2018-06-11T12:17:16.467Z,31.50
2018-06-11T12:19:44.584Z,31.60
2018-06-11T12:22:14.129Z,32.20
2018-06-11T12:24:42.889Z,34.80
2018-06-11T12:27:14.343Z,34.60
2018-06-11T12:34:38.021Z,35.80
2018-06-11T12:37:06.092Z,36.80
2018-06-11T12:39:34.202Z,37.40
2018-06-11T12:42:02.258Z,37.60
2018-06-11T12:44:30.281Z,37.80
2018-06-11T12:46:58.307Z,38.50
2018-06-11T12:49:26.346Z,38.50
2018-06-11T12:51:54.346Z,39.20
2018-06-11T12:54:22.543Z,37.80
2018-06-11T12:56:50.531Z,39.00
2018-06-11T12:59:18.582Z,40.20
2018-06-11T13:01:46.649Z,38.90
2018-06-11T13:04:14.649Z,38.20
2018-06-11T13:09:10.441Z,38.60
2018-06-11T13:11:38.873Z,39.50
2018-06-11T13:14:06.979Z,39.20
2018-06-11T13:19:02.719Z,38.10
2018-06-11T13:21:30.750Z,39.50
2018-06-11T13:23:58.876Z,39.60
2018-06-11T13:26:26.931Z,38.90
2018-06-11T13:28:54.977Z,37.60
2018-06-11T13:31:22.992Z,37.80
2018-06-11T13:33:51.043Z,38.40
2018-06-11T13:36:19.089Z,39.10
2018-06-11T13:38:47.237Z,39.00
2018-06-11T13:41:15.264Z,37.90
2018-06-11T13:43:43.342Z,37.90
2018-06-11T13:46:11.462Z,38.70
2018-06-11T13:48:39.460Z,36.40
2018-06-11T13:51:07.511Z,36.50
2018-06-11T13:53:35.525Z,35.90
2018-06-11T13:58:31.314Z,37.10
2018-06-11T14:00:59.351Z,38.30
2018-06-11T14:03:28.631Z,38.20
2018-06-11T14:05:56.638Z,38.10
2018-06-11T14:08:24.713Z,37.10
2018-06-11T14:10:52.810Z,35.90
2018-06-11T14:13:27.477Z,35.70
2018-06-11T14:15:55.619Z,36.60
2018-06-11T14:18:23.648Z,36.30
2018-06-11T14:20:51.701Z,36.40
2018-06-11T14:23:19.718Z,36.70
2018-06-11T14:25:47.759Z,37.00
2018-06-11T14:28:15.849Z,37.00
2018-06-11T14:30:43.894Z,35.30
2018-06-11T14:33:11.992Z,34.10
2018-06-11T14:35:40.038Z,35.80
2018-06-11T14:38:08.062Z,34.70
2018-06-11T14:40:36.106Z,33.60
2018-06-11T14:43:04.192Z,33.70
2018-06-11T14:45:32.243Z,35.10
2018-06-11T14:48:00.309Z,35.60
2018-06-11T14:50:28.345Z,34.50
2018-06-11T14:52:56.365Z,34.50
2018-06-11T14:55:24.476Z,33.60
2018-06-11T14:57:52.552Z,34.40
2018-06-11T15:00:20.507Z,33.80
2018-06-11T15:02:48.592Z,33.30
2018-06-11T15:05:16.591Z,32.80
2018-06-11T15:07:44.705Z,33.40
2018-06-11T15:10:12.794Z,34.60
2018-06-11T15:12:41.091Z,34.10
2018-06-11T15:15:09.133Z,33.60
2018-06-11T15:17:37.220Z,34.50
2018-06-11T15:20:05.305Z,34.10
2018-06-11T15:22:33.368Z,33.10
2018-06-11T15:25:01.463Z,33.10
2018-06-11T15:27:29.527Z,34.20
2018-06-11T15:29:57.576Z,35.00
2018-06-11T15:32:25.636Z,35.10
2018-06-11T15:34:53.913Z,34.40
2018-06-11T15:37:22.053Z,33.30
2018-06-11T15:39:50.077Z,32.90
2018-06-11T15:42:18.157Z,33.40
2018-06-11T15:44:46.214Z,33.40
2018-06-11T15:47:14.280Z,33.70
2018-06-11T15:49:42.332Z,34.70
2018-06-11T15:52:10.459Z,35.30
2018-06-11T15:54:38.575Z,36.00
2018-06-11T15:57:06.628Z,35.50
2018-06-11T15:59:34.661Z,35.50
2018-06-11T16:02:02.837Z,34.70
2018-06-11T16:04:30.847Z,34.20
2018-06-11T16:06:58.882Z,34.60
2018-06-11T16:09:26.998Z,34.80
2018-06-11T16:11:55.025Z,34.70
2018-06-11T16:14:23.041Z,33.90
2018-06-11T16:16:51.107Z,33.50
2018-06-11T16:19:19.123Z,33.00
2018-06-11T16:21:47.174Z,32.80
2018-06-11T16:26:42.938Z,32.60
2018-06-11T16:29:11.030Z,32.50
2018-06-11T16:31:39.062Z,32.30
2018-06-11T16:34:07.090Z,32.60
2018-06-11T16:36:35.237Z,31.90
2018-06-11T16:39:03.446Z,32.20
2018-06-11T16:41:31.829Z,32.50
2018-06-11T16:43:59.833Z,33.40
2018-06-11T16:46:27.958Z,32.90
2018-06-11T16:48:56.113Z,32.80
2018-06-11T16:51:24.038Z,33.30
2018-06-11T16:53:52.148Z,32.90
2018-06-11T16:56:20.165Z,32.20
2018-06-11T16:58:48.215Z,31.10
2018-06-11T17:01:16.280Z,31.20
2018-06-11T17:03:44.348Z,31.10
2018-06-11T17:06:12.455Z,30.90
2018-06-11T17:08:40.498Z,30.40
2018-06-11T17:11:08.700Z,30.50
2018-06-11T17:13:37.591Z,30.20
2018-06-11T17:16:05.628Z,29.80
2018-06-11T17:18:33.871Z,29.50
2018-06-11T17:21:02.097Z,29.20
2018-06-11T17:23:30.141Z,28.50
2018-06-11T17:25:58.149Z,28.00
2018-06-11T17:28:26.303Z,27.70
2018-06-11T17:30:55.143Z,27.40
2018-06-11T17:33:24.296Z,27.20
2018-06-11T17:35:52.405Z,26.70
2018-06-11T17:38:23.910Z,26.40
2018-06-11T17:40:52.165Z,26.30
2018-06-11T17:43:20.269Z,26.20
2018-06-11T17:45:49.525Z,26.10
2018-06-11T17:48:18.429Z,25.80
2018-06-11T17:53:15.553Z,25.20
2018-06-11T17:55:43.878Z,25.00
2018-06-11T17:58:11.904Z,25.00
2018-06-11T18:00:39.912Z,24.70
2018-06-11T18:03:08.329Z,24.70
2018-06-11T18:05:36.399Z,24.60
2018-06-11T18:08:04.714Z,24.40
2018-06-11T18:10:32.738Z,24.20
2018-06-11T18:13:01.121Z,23.90
2018-06-11T18:15:29.402Z,23.80
2018-06-11T18:17:57.929Z,23.70
2018-06-11T18:20:26.139Z,23.60
2018-06-11T18:22:54.254Z,23.60
2018-06-11T18:25:22.326Z,23.60
2018-06-11T18:27:50.366Z,23.50
2018-06-11T18:30:18.388Z,23.30
2018-06-11T18:32:46.452Z,23.30
2018-06-11T18:35:14.499Z,23.20
2018-06-11T18:37:42.567Z,23.10
2018-06-11T18:40:10.667Z,23.00
2018-06-11T18:42:38.643Z,23.00
2018-06-11T18:45:06.774Z,22.90
2018-06-11T18:47:34.857Z,22.90
2018-06-11T18:50:02.893Z,23.00
2018-06-11T18:52:30.904Z,23.00
2018-06-11T18:54:58.978Z,22.90
2018-06-11T18:57:27.075Z,22.80
2018-06-11T18:59:55.608Z,22.80
2018-06-11T19:02:24.731Z,22.90
2018-06-11T19:04:53.338Z,22.90
2018-06-11T19:07:21.401Z,22.80
2018-06-11T19:09:51.820Z,22.80
2018-06-11T19:12:21.147Z,22.70
2018-06-11T19:14:49.254Z,22.60
2018-06-11T19:17:17.254Z,22.50
2018-06-11T19:19:45.343Z,22.50
2018-06-11T19:22:13.428Z,22.40
2018-06-11T19:24:42.038Z,22.30
2018-06-11T19:27:10.742Z,22.30
2018-06-11T19:29:38.972Z,22.20
2018-06-11T19:32:07.003Z,22.10
2018-06-11T19:34:35.123Z,22.00
2018-06-11T19:37:03.171Z,22.00
2018-06-11T19:39:31.225Z,22.00
2018-06-11T19:41:59.239Z,21.90
2018-06-11T19:44:27.325Z,22.00
2018-06-11T19:46:55.351Z,21.90
2018-06-11T19:49:24.281Z,21.90
2018-06-11T19:51:53.243Z,21.80
2018-06-11T19:54:21.371Z,21.70
2018-06-11T19:56:49.352Z,21.70
2018-06-11T19:59:17.458Z,21.70
2018-06-11T20:01:45.497Z,21.60
2018-06-11T20:04:13.515Z,21.60
2018-06-11T20:06:41.668Z,21.60
2018-06-11T20:09:09.720Z,21.60
2018-06-11T20:11:37.786Z,21.50
2018-06-11T20:14:05.811Z,21.50
2018-06-11T20:16:33.868Z,21.50
2018-06-11T20:19:02.028Z,21.50
2018-06-11T20:21:30.331Z,21.50
2018-06-11T20:23:58.536Z,21.40
2018-06-11T20:26:26.679Z,21.40
2018-06-11T20:28:54.828Z,21.40
2018-06-11T20:31:22.894Z,21.40
2018-06-11T20:33:50.973Z,21.40
2018-06-11T20:36:19.258Z,21.30
2018-06-11T20:38:48.698Z,21.30
2018-06-11T20:41:16.998Z,21.30
2018-06-11T20:43:45.013Z,21.30
2018-06-11T20:46:13.166Z,21.20
2018-06-11T20:48:41.301Z,21.20
2018-06-11T20:51:09.416Z,21.20
2018-06-11T20:53:37.435Z,21.10
2018-06-11T20:56:05.448Z,21.00
2018-06-11T20:58:33.556Z,20.90
2018-06-11T21:01:01.619Z,20.90
2018-06-11T21:03:29.659Z,20.80
2018-06-11T21:05:57.720Z,20.90
2018-06-11T21:08:25.777Z,20.80
2018-06-11T21:10:53.871Z,20.70
2018-06-11T21:13:21.876Z,20.70
2018-06-11T21:15:49.954Z,20.60
2018-06-11T21:18:17.957Z,20.60
2018-06-11T21:20:45.994Z,20.60
2018-06-11T21:23:14.022Z,20.50
2018-06-11T21:30:37.544Z,20.30
2018-06-11T21:33:05.654Z,20.30
2018-06-11T21:35:33.800Z,20.20
2018-06-11T21:38:01.857Z,20.20
2018-06-11T21:40:29.931Z,20.20
2018-06-11T21:42:57.973Z,20.10
2018-06-11T21:45:26.022Z,20.00
2018-06-11T21:47:54.056Z,20.00
2018-06-11T21:50:22.082Z,19.90
2018-06-11T21:52:50.120Z,19.90
2018-06-11T21:55:18.133Z,19.80
2018-06-11T21:57:46.233Z,19.80
2018-06-11T22:00:14.294Z,19.70
2018-06-11T22:02:42.377Z,19.70
2018-06-11T22:05:10.386Z,19.70
2018-06-11T22:07:38.418Z,19.60
2018-06-11T22:10:06.496Z,19.50
2018-06-11T22:12:34.530Z,19.50
2018-06-11T22:15:02.571Z,19.40
2018-06-11T22:17:30.606Z,19.40
2018-06-11T22:19:58.615Z,19.30
2018-06-11T22:22:26.685Z,19.20
2018-06-11T22:24:54.815Z,19.20
2018-06-11T22:27:22.836Z,19.10
2018-06-11T22:29:50.889Z,19.10
2018-06-11T22:32:18.908Z,19.00
2018-06-11T22:34:47.014Z,19.00
2018-06-11T22:37:15.056Z,19.00
2018-06-11T22:39:43.091Z,19.00
2018-06-11T22:42:12.129Z,18.90
2018-06-11T22:44:40.148Z,18.80
2018-06-11T22:47:08.190Z,18.80
2018-06-11T22:49:36.192Z,18.80
2018-06-11T22:52:04.217Z,18.70
2018-06-11T22:57:00.078Z,18.60
2018-06-11T22:59:28.100Z,18.50
2018-06-11T23:01:56.222Z,18.50
2018-06-11T23:04:24.305Z,18.40
2018-06-11T23:06:52.332Z,18.40
2018-06-11T23:09:20.428Z,18.30
2018-06-11T23:11:48.468Z,18.30
2018-06-11T23:14:16.468Z,18.20
2018-06-11T23:16:44.551Z,18.20
2018-06-11T23:19:12.582Z,18.20
2018-06-11T23:21:40.696Z,18.10
2018-06-11T23:24:08.722Z,18.10
2018-06-11T23:26:36.767Z,18.10
2018-06-11T23:29:04.902Z,18.00
2018-06-11T23:31:32.907Z,18.00
2018-06-11T23:34:00.941Z,17.90
2018-06-11T23:36:28.962Z,17.90
2018-06-11T23:38:56.993Z,17.80
2018-06-11T23:41:25.059Z,17.80
2018-06-11T23:43:53.102Z,17.70
2018-06-11T23:46:21.116Z,17.70
2018-06-11T23:48:49.168Z,17.70
2018-06-11T23:51:17.175Z,17.70
2018-06-11T23:53:45.213Z,17.60
2018-06-11T23:56:13.217Z,17.60
2018-06-11T23:58:41.249Z,17.50
